PRINT OUT SECTION, show ยป

METAR EPBY 161930Z VRB01KT CAVOK 15/02 Q1019=

METAR EPGD 161930Z 05006KT 020V080 CAVOK 08/05 Q1021 =

METAR EPKK 161930Z 04004KT CAVOK 16/07 Q1018 =

METAR EPKT 161930Z 05002KT CAVOK 12/06 Q1018 =

METAR EPLB 161930Z 02004KT CAVOK 12/03 Q1019 =

METAR EPLL 161930Z 04005KT CAVOK 15/02 Q1019 =

METAR EPML 161930Z NIL=

METAR EPMO 161930Z 25003KT CAVOK 13/04 Q1019 =

METAR EPPO 161930Z 07006KT CAVOK 15/04 Q1018 =

METAR EPRA 161930Z NIL=

METAR EPRZ 161930Z 04005KT CAVOK 15/06 Q1018 =

METAR EPSC 161930Z 03006KT 360V080 CAVOK 15/06 Q1019 =

METAR EPSY 161930Z 02010KT CAVOK 12/03 Q1020=

METAR EPWA 161930Z 30002KT CAVOK 13/03 Q1019 NOSIG=

METAR EPWR 161930Z 06007KT CAVOK 19/07 Q1018 =

METAR EPZG 161930Z 05004KT CAVOK 18/05 Q1018 =